LGKO/KGS METAR and TAF weather

Enter ICAO airport designator
Station Type Date Time Source
LGKO METAR 2019/02/21 11:20 UTC NOAA

LGKO 211120Z /////KT 9999 FEW025 16/10 Q1021


Station Type Date Time Source
LGKO Decoded METAR 2019/02/21 11:20 UTC NOAA

Kos Airport , Greece (LGKO) 36-47N 027-04E
Feb 21, 2019 - 06:20 AM EST / 2019.02.21 1120 UTC
Visibility: greater than 7 mile(s):0
Sky conditions: mostly clear
Temperature: 60 F (16 C)
Dew Point: 50 F (10 C)
Relative Humidity: 67%
Pressure (altimeter): 30.15 in. Hg (1021 hPa)
ob: LGKO 211120Z /////KT 9999 FEW025 16/10 Q1021
cycle: 11

Station Type Date Time Source
LGKO TAF 2019/02/21 12:15 UTC NOAA

TAF LGKO 211100Z 2112/2212 33015KT 9999 FEW025


Example: see airport list